sensor_id;sensor_type;location;lat;lon;timestamp;pressure;altitude;pressure_sealevel;temperature;humidity
60099;BME280;62818;49.394;8.686;2023-09-19T00:00:56;99887.50;;;17.99;100.00
60099;BME280;62818;49.394;8.686;2023-09-19T00:01:58;99891.84;;;18.00;100.00
60099;BME280;62818;49.394;8.686;2023-09-19T00:02:58;99895.81;;;17.97;100.00
60099;BME280;62818;49.394;8.686;2023-09-19T00:03:59;99892.53;;;17.84;100.00
60099;BME280;62818;49.394;8.686;2023-09-19T00:05:01;99889.88;;;17.84;100.00
60099;BME280;62818;49.394;8.686;2023-09-19T00:06:04;99896.84;;;17.61;100.00
60099;BME280;62818;49.394;8.686;2023-09-19T00:07:07;99892.78;;;17.82;100.00
60099;BME280;62818;49.394;8.686;2023-09-19T00:08:09;99897.78;;;17.78;100.00
60099;BME280;62818;49.394;8.686;2023-09-19T00:09:10;99890.44;;;17.86;100.00
60099;BME280;62818;49.394;8.686;2023-09-19T00:10:13;99899.19;;;17.93;100.00
60099;BME280;62818;49.394;8.686;2023-09-19T00:11:15;99894.31;;;17.66;100.00
60099;BME280;62818;49.394;8.686;2023-09-19T00:12:16;99892.66;;;17.65;100.00
60099;BME280;62818;49.394;8.686;2023-09-19T00:13:18;99902.66;;;17.58;100.00
60099;BME280;62818;49.394;8.686;2023-09-19T00:14:19;99898.00;;;17.65;100.00
60099;BME280;62818;49.394;8.686;2023-09-19T00:15:20;99906.06;;;17.77;100.00
60099;BME280;62818;49.394;8.686;2023-09-19T00:16:21;99895.56;;;18.10;100.00
60099;BME280;62818;49.394;8.686;2023-09-19T00:17:22;99896.97;;;17.78;100.00
60099;BME280;62818;49.394;8.686;2023-09-19T00:18:23;99901.28;;;17.91;100.00
60099;BME280;62818;49.394;8.686;2023-09-19T00:19:32;99899.19;;;17.93;100.00
60099;BME280;62818;49.394;8.686;2023-09-19T00:20:35;99892.31;;;17.85;100.00
60099;BME280;62818;49.394;8.686;2023-09-19T00:21:36;99903.16;;;17.90;100.00
60099;BME280;62818;49.394;8.686;2023-09-19T00:22:41;99907.34;;;17.74;100.00
60099;BME280;62818;49.394;8.686;2023-09-19T00:23:42;99906.63;;;17.67;100.00
60099;BME280;62818;49.394;8.686;2023-09-19T00:24:43;99906.53;;;17.74;100.00
60099;BME280;62818;49.394;8.686;2023-09-19T00:25:44;99910.13;;;17.56;100.00
60099;BME280;62818;49.394;8.686;2023-09-19T00:26:45;99907.22;;;17.69;100.00
60099;BME280;62818;49.394;8.686;2023-09-19T00:27:47;99911.06;;;17.73;100.00
60099;BME280;62818;49.394;8.686;2023-09-19T00:28:52;99910.38;;;17.66;100.00
60099;BME280;62818;49.394;8.686;2023-09-19T00:29:53;99907.81;;;17.60;100.00
60099;BME280;62818;49.394;8.686;2023-09-19T00:30:53;99902.41;;;17.48;100.00
60099;BME280;62818;49.394;8.686;2023-09-19T00:31:57;99901.03;;;17.81;100.00
60099;BME280;62818;49.394;8.686;2023-09-19T00:32:59;99904.66;;;17.86;100.00
60099;BME280;62818;49.394;8.686;2023-09-19T00:34:01;99897.56;;;17.68;100.00
60099;BME280;62818;49.394;8.686;2023-09-19T00:35:04;99905.34;;;17.58;100.00
60099;BME280;62818;49.394;8.686;2023-09-19T00:36:05;99903.72;;;17.69;100.00
60099;BME280;62818;49.394;8.686;2023-09-19T00:37:06;99909.91;;;17.69;100.00
60099;BME280;62818;49.394;8.686;2023-09-19T00:38:06;99901.88;;;17.58;100.00
60099;BME280;62818;49.394;8.686;2023-09-19T00:39:07;99905.13;;;17.60;100.00
60099;BME280;62818;49.394;8.686;2023-09-19T00:40:09;99919.00;;;17.80;100.00
60099;BME280;62818;49.394;8.686;2023-09-19T00:41:15;99913.50;;;17.87;100.00
60099;BME280;62818;49.394;8.686;2023-09-19T00:42:19;99911.19;;;17.78;100.00
60099;BME280;62818;49.394;8.686;2023-09-19T00:43:21;99917.59;;;17.54;100.00
60099;BME280;62818;49.394;8.686;2023-09-19T00:44:24;99904.78;;;17.56;100.00
60099;BME280;62818;49.394;8.686;2023-09-19T00:45:24;99915.22;;;17.46;100.00
60099;BME280;62818;49.394;8.686;2023-09-19T00:46:25;99908.28;;;17.68;100.00
60099;BME280;62818;49.394;8.686;2023-09-19T00:47:27;99905.84;;;17.55;100.00
60099;BME280;62818;49.394;8.686;2023-09-19T00:48:30;99913.88;;;17.55;100.00
60099;BME280;62818;49.394;8.686;2023-09-19T00:49:32;99920.41;;;17.59;100.00
60099;BME280;62818;49.394;8.686;2023-09-19T00:50:32;99921.78;;;17.50;100.00
60099;BME280;62818;49.394;8.686;2023-09-19T00:51:34;99919.75;;;17.46;100.00
60099;BME280;62818;49.394;8.686;2023-09-19T00:52:39;99919.22;;;17.55;100.00
60099;BME280;62818;49.394;8.686;2023-09-19T00:53:41;99920.09;;;17.49;100.00
60099;BME280;62818;49.394;8.686;2023-09-19T00:54:47;99925.03;;;17.52;100.00
60099;BME280;62818;49.394;8.686;2023-09-19T00:55:48;99923.84;;;17.48;100.00
60099;BME280;62818;49.394;8.686;2023-09-19T00:56:49;99920.59;;;17.46;100.00
60099;BME280;62818;49.394;8.686;2023-09-19T00:57:51;99929.13;;;17.55;100.00
60099;BME280;62818;49.394;8.686;2023-09-19T00:58:52;99934.59;;;17.71;100.00
60099;BME280;62818;49.394;8.686;2023-09-19T00:59:54;99932.88;;;17.65;100.00
60099;BME280;62818;49.394;8.686;2023-09-19T01:00:57;99933.78;;;17.59;100.00
60099;BME280;62818;49.394;8.686;2023-09-19T01:01:58;99942.41;;;17.61;100.00
60099;BME280;62818;49.394;8.686;2023-09-19T01:03:01;99929.50;;;17.70;100.00
60099;BME280;62818;49.394;8.686;2023-09-19T01:04:01;99938.84;;;17.49;100.00
60099;BME280;62818;49.394;8.686;2023-09-19T01:05:02;99934.84;;;17.58;100.00
60099;BME280;62818;49.394;8.686;2023-09-19T01:06:06;99933.91;;;17.53;100.00
60099;BME280;62818;49.394;8.686;2023-09-19T01:07:08;99940.09;;;17.53;100.00
60099;BME280;62818;49.394;8.686;2023-09-19T01:08:09;99939.66;;;17.80;100.00
60099;BME280;62818;49.394;8.686;2023-09-19T01:09:13;99939.28;;;17.64;100.00
60099;BME280;62818;49.394;8.686;2023-09-19T01:10:16;99938.09;;;17.72;100.00
60099;BME280;62818;49.394;8.686;2023-09-19T01:11:35;99942.88;;;17.58;100.00
60099;BME280;62818;49.394;8.686;2023-09-19T01:13:30;99938.69;;;17.51;100.00
60099;BME280;62818;49.394;8.686;2023-09-19T01:14:36;99949.59;;;17.49;100.00
60099;BME280;62818;49.394;8.686;2023-09-19T01:17:07;99947.66;;;17.56;100.00
60099;BME280;62818;49.394;8.686;2023-09-19T01:20:15;99952.25;;;17.49;100.00
60099;BME280;62818;49.394;8.686;2023-09-19T01:21:45;99951.91;;;17.46;100.00
60099;BME280;62818;49.394;8.686;2023-09-19T01:26:07;99942.84;;;17.47;100.00
60099;BME280;62818;49.394;8.686;2023-09-19T01:29:38;99953.66;;;17.40;100.00
60099;BME280;62818;49.394;8.686;2023-09-19T01:30:44;99946.09;;;17.49;100.00
60099;BME280;62818;49.394;8.686;2023-09-19T01:31:47;99943.63;;;17.47;100.00
60099;BME280;62818;49.394;8.686;2023-09-19T01:32:50;99950.28;;;17.45;100.00
60099;BME280;62818;49.394;8.686;2023-09-19T01:35:04;99943.56;;;17.54;100.00
60099;BME280;62818;49.394;8.686;2023-09-19T01:36:05;99946.47;;;17.52;100.00
60099;BME280;62818;49.394;8.686;2023-09-19T01:37:05;99947.34;;;17.64;100.00
60099;BME280;62818;49.394;8.686;2023-09-19T01:38:06;99947.50;;;17.51;100.00
60099;BME280;62818;49.394;8.686;2023-09-19T01:39:11;99946.91;;;17.49;100.00
60099;BME280;62818;49.394;8.686;2023-09-19T01:40:16;99952.44;;;17.54;100.00
60099;BME280;62818;49.394;8.686;2023-09-19T01:43:49;99945.53;;;17.47;100.00
60099;BME280;62818;49.394;8.686;2023-09-19T01:44:50;99947.72;;;17.50;100.00
60099;BME280;62818;49.394;8.686;2023-09-19T01:46:24;99951.31;;;17.32;100.00
60099;BME280;62818;49.394;8.686;2023-09-19T01:47:50;99948.75;;;17.37;100.00
60099;BME280;62818;49.394;8.686;2023-09-19T01:50:52;99948.63;;;17.32;100.00
60099;BME280;62818;49.394;8.686;2023-09-19T01:52:02;99961.66;;;17.29;100.00
60099;BME280;62818;49.394;8.686;2023-09-19T01:53:18;99956.22;;;17.35;100.00
60099;BME280;62818;49.394;8.686;2023-09-19T01:54:27;99956.56;;;17.39;100.00
60099;BME280;62818;49.394;8.686;2023-09-19T01:55:37;99955.94;;;17.25;100.00
60099;BME280;62818;49.394;8.686;2023-09-19T01:56:59;99962.28;;;17.42;100.00
60099;BME280;62818;49.394;8.686;2023-09-19T01:58:07;99960.31;;;17.49;100.00
60099;BME280;62818;49.394;8.686;2023-09-19T01:59:24;99964.41;;;17.52;100.00
60099;BME280;62818;49.394;8.686;2023-09-19T02:00:29;99963.16;;;17.54;100.00
60099;BME280;62818;49.394;8.686;2023-09-19T02:01:34;99969.13;;;17.38;100.00
60099;BME280;62818;49.394;8.686;2023-09-19T02:02:42;99970.19;;;17.37;100.00
60099;BME280;62818;49.394;8.686;2023-09-19T02:03:46;99964.66;;;17.50;100.00
60099;BME280;62818;49.394;8.686;2023-09-19T02:04:49;99970.44;;;17.47;100.00
60099;BME280;62818;49.394;8.686;2023-09-19T02:05:51;99971.25;;;17.48;100.00
60099;BME280;62818;49.394;8.686;2023-09-19T02:06:53;99972.19;;;17.42;100.00
60099;BME280;62818;49.394;8.686;2023-09-19T02:07:56;99973.69;;;17.49;100.00
60099;BME280;62818;49.394;8.686;2023-09-19T02:08:56;99971.22;;;17.36;100.00
60099;BME280;62818;49.394;8.686;2023-09-19T02:10:00;99966.25;;;17.40;100.00
60099;BME280;62818;49.394;8.686;2023-09-19T02:11:00;99970.69;;;17.46;100.00
60099;BME280;62818;49.394;8.686;2023-09-19T02:12:02;99968.88;;;17.58;100.00
60099;BME280;62818;49.394;8.686;2023-09-19T02:13:03;99977.06;;;17.45;100.00
60099;BME280;62818;49.394;8.686;2023-09-19T02:14:04;99970.75;;;17.57;100.00
60099;BME280;62818;49.394;8.686;2023-09-19T02:15:08;99978.19;;;17.55;100.00
60099;BME280;62818;49.394;8.686;2023-09-19T02:16:09;99979.84;;;17.38;100.00
60099;BME280;62818;49.394;8.686;2023-09-19T02:17:10;99983.59;;;17.37;100.00
60099;BME280;62818;49.394;8.686;2023-09-19T02:18:13;99980.19;;;17.30;100.00
60099;BME280;62818;49.394;8.686;2023-09-19T02:19:14;99983.16;;;17.40;100.00
60099;BME280;62818;49.394;8.686;2023-09-19T02:20:15;99980.94;;;17.49;100.00
60099;BME280;62818;49.394;8.686;2023-09-19T02:21:17;99979.47;;;17.53;100.00
60099;BME280;62818;49.394;8.686;2023-09-19T02:22:18;99985.81;;;17.40;100.00
60099;BME280;62818;49.394;8.686;2023-09-19T02:23:18;99981.16;;;17.47;100.00
60099;BME280;62818;49.394;8.686;2023-09-19T02:24:19;99979.97;;;17.43;100.00
60099;BME280;62818;49.394;8.686;2023-09-19T02:25:19;99980.28;;;17.53;100.00
60099;BME280;62818;49.394;8.686;2023-09-19T02:26:20;99988.53;;;17.52;100.00
60099;BME280;62818;49.394;8.686;2023-09-19T02:27:22;99988.34;;;17.35;100.00
60099;BME280;62818;49.394;8.686;2023-09-19T02:28:22;99981.16;;;17.47;100.00
60099;BME280;62818;49.394;8.686;2023-09-19T02:29:23;99987.44;;;17.41;100.00
60099;BME280;62818;49.394;8.686;2023-09-19T02:30:25;99990.41;;;17.51;100.00
60099;BME280;62818;49.394;8.686;2023-09-19T02:31:26;99987.97;;;17.61;100.00
60099;BME280;62818;49.394;8.686;2023-09-19T02:32:30;99992.91;;;17.64;100.00
60099;BME280;62818;49.394;8.686;2023-09-19T02:33:31;99986.91;;;17.51;100.00
60099;BME280;62818;49.394;8.686;2023-09-19T02:34:32;99994.44;;;17.42;100.00
60099;BME280;62818;49.394;8.686;2023-09-19T02:35:36;99995.91;;;17.38;100.00
60099;BME280;62818;49.394;8.686;2023-09-19T02:36:36;99995.47;;;17.41;100.00
60099;BME280;62818;49.394;8.686;2023-09-19T02:37:37;99988.91;;;17.55;100.00
60099;BME280;62818;49.394;8.686;2023-09-19T02:38:38;99988.25;;;17.42;100.00
60099;BME280;62818;49.394;8.686;2023-09-19T02:39:38;99993.13;;;17.45;100.00
60099;BME280;62818;49.394;8.686;2023-09-19T02:40:39;99987.88;;;17.38;100.00
60099;BME280;62818;49.394;8.686;2023-09-19T02:41:40;99996.06;;;17.43;100.00
60099;BME280;62818;49.394;8.686;2023-09-19T02:42:42;99998.59;;;17.38;100.00
60099;BME280;62818;49.394;8.686;2023-09-19T02:43:43;100000.09;;;17.52;100.00
60099;BME280;62818;49.394;8.686;2023-09-19T02:44:43;100008.59;;;17.61;100.00
60099;BME280;62818;49.394;8.686;2023-09-19T02:45:47;100004.34;;;17.42;100.00
60099;BME280;62818;49.394;8.686;2023-09-19T02:46:50;100008.88;;;17.41;100.00
60099;BME280;62818;49.394;8.686;2023-09-19T02:47:51;100011.09;;;17.44;100.00
60099;BME280;62818;49.394;8.686;2023-09-19T02:48:51;100016.00;;;17.47;100.00
60099;BME280;62818;49.394;8.686;2023-09-19T02:49:52;100013.31;;;17.47;100.00
60099;BME280;62818;49.394;8.686;2023-09-19T02:50:55;100008.44;;;17.44;100.00
60099;BME280;62818;49.394;8.686;2023-09-19T02:51:56;100014.13;;;17.48;100.00
60099;BME280;62818;49.394;8.686;2023-09-19T02:52:58;100009.56;;;17.66;100.00
60099;BME280;62818;49.394;8.686;2023-09-19T02:54:00;100013.81;;;17.56;100.00
60099;BME280;62818;49.394;8.686;2023-09-19T02:55:00;100009.59;;;17.48;100.00
60099;BME280;62818;49.394;8.686;2023-09-19T02:56:01;100013.41;;;17.41;100.00
60099;BME280;62818;49.394;8.686;2023-09-19T02:57:04;100018.75;;;17.41;100.00
60099;BME280;62818;49.394;8.686;2023-09-19T02:58:07;100015.28;;;17.40;100.00
60099;BME280;62818;49.394;8.686;2023-09-19T02:59:08;100020.56;;;17.47;100.00
60099;BME280;62818;49.394;8.686;2023-09-19T03:00:11;100020.88;;;17.68;100.00
60099;BME280;62818;49.394;8.686;2023-09-19T03:01:12;100019.09;;;17.62;100.00
60099;BME280;62818;49.394;8.686;2023-09-19T03:02:13;100018.97;;;17.57;100.00
60099;BME280;62818;49.394;8.686;2023-09-19T03:03:13;100020.94;;;17.50;100.00
60099;BME280;62818;49.394;8.686;2023-09-19T03:04:16;100021.53;;;17.52;100.00
60099;BME280;62818;49.394;8.686;2023-09-19T03:05:20;100021.81;;;17.44;100.00
60099;BME280;62818;49.394;8.686;2023-09-19T03:06:21;100022.41;;;17.46;100.00
60099;BME280;62818;49.394;8.686;2023-09-19T03:07:24;100024.50;;;17.44;100.00
60099;BME280;62818;49.394;8.686;2023-09-19T03:08:25;100023.25;;;17.47;100.00
60099;BME280;62818;49.394;8.686;2023-09-19T03:09:25;100018.84;;;17.52;100.00
60099;BME280;62818;49.394;8.686;2023-09-19T03:10:27;100026.28;;;17.50;100.00
60099;BME280;62818;49.394;8.686;2023-09-19T03:11:29;100020.59;;;17.58;100.00
60099;BME280;62818;49.394;8.686;2023-09-19T03:12:30;100018.00;;;17.52;100.00
60099;BME280;62818;49.394;8.686;2023-09-19T03:13:30;100009.00;;;17.46;100.00
60099;BME280;62818;49.394;8.686;2023-09-19T03:14:31;100024.94;;;17.41;100.00
60099;BME280;62818;49.394;8.686;2023-09-19T03:15:36;100022.09;;;17.54;100.00
60099;BME280;62818;49.394;8.686;2023-09-19T03:16:39;100019.91;;;17.63;100.00
60099;BME280;62818;49.394;8.686;2023-09-19T03:17:43;100027.16;;;17.74;100.00
60099;BME280;62818;49.394;8.686;2023-09-19T03:18:45;100022.50;;;17.69;100.00
60099;BME280;62818;49.394;8.686;2023-09-19T03:19:47;100028.81;;;17.87;100.00
60099;BME280;62818;49.394;8.686;2023-09-19T03:20:54;100018.16;;;17.57;100.00
60099;BME280;62818;49.394;8.686;2023-09-19T03:21:56;100021.94;;;17.49;100.00
60099;BME280;62818;49.394;8.686;2023-09-19T03:22:57;100024.50;;;17.44;100.00
60099;BME280;62818;49.394;8.686;2023-09-19T03:23:58;100028.97;;;17.50;100.00
60099;BME280;62818;49.394;8.686;2023-09-19T03:24:59;100030.88;;;17.61;100.00
60099;BME280;62818;49.394;8.686;2023-09-19T03:26:08;100024.38;;;17.39;100.00
60099;BME280;62818;49.394;8.686;2023-09-19T03:27:10;100026.69;;;17.36;100.00
60099;BME280;62818;49.394;8.686;2023-09-19T03:28:16;100034.34;;;17.32;100.00
60099;BME280;62818;49.394;8.686;2023-09-19T03:29:18;100031.31;;;17.58;100.00
60099;BME280;62818;49.394;8.686;2023-09-19T03:30:18;100035.75;;;17.35;100.00
60099;BME280;62818;49.394;8.686;2023-09-19T03:31:19;100039.41;;;17.40;100.00
60099;BME280;62818;49.394;8.686;2023-09-19T03:32:26;100036.41;;;17.48;100.00
60099;BME280;62818;49.394;8.686;2023-09-19T03:33:26;100037.53;;;17.41;100.00
60099;BME280;62818;49.394;8.686;2023-09-19T03:34:27;100039.84;;;17.37;100.00
60099;BME280;62818;49.394;8.686;2023-09-19T03:35:28;100029.97;;;17.49;100.00
60099;BME280;62818;49.394;8.686;2023-09-19T03:36:29;100045.47;;;17.47;100.00
60099;BME280;62818;49.394;8.686;2023-09-19T03:37:31;100046.94;;;17.61;100.00
60099;BME280;62818;49.394;8.686;2023-09-19T03:38:33;100045.31;;;17.60;100.00
60099;BME280;62818;49.394;8.686;2023-09-19T03:39:36;100043.03;;;17.46;100.00
60099;BME280;62818;49.394;8.686;2023-09-19T03:40:37;100045.47;;;17.47;100.00
60099;BME280;62818;49.394;8.686;2023-09-19T03:41:38;100049.22;;;17.46;100.00
60099;BME280;62818;49.394;8.686;2023-09-19T03:42:39;100052.91;;;17.45;100.00
60099;BME280;62818;49.394;8.686;2023-09-19T03:43:41;100048.72;;;17.49;100.00
60099;BME280;62818;49.394;8.686;2023-09-19T03:44:41;100047.69;;;17.68;100.00
60099;BME280;62818;49.394;8.686;2023-09-19T03:45:42;100053.47;;;17.65;100.00
60099;BME280;62818;49.394;8.686;2023-09-19T03:46:42;100054.50;;;17.53;100.00
60099;BME280;62818;49.394;8.686;2023-09-19T03:47:43;100055.94;;;17.37;100.00
60099;BME280;62818;49.394;8.686;2023-09-19T03:48:43;100051.59;;;17.54;100.00
60099;BME280;62818;49.394;8.686;2023-09-19T03:49:44;100051.88;;;17.64;100.00
60099;BME280;62818;49.394;8.686;2023-09-19T03:50:44;100054.13;;;17.91;100.00
60099;BME280;62818;49.394;8.686;2023-09-19T03:51:45;100055.13;;;17.66;100.00
60099;BME280;62818;49.394;8.686;2023-09-19T03:52:46;100057.84;;;17.48;100.00
60099;BME280;62818;49.394;8.686;2023-09-19T03:53:47;100054.47;;;17.23;100.00
60099;BME280;62818;49.394;8.686;2023-09-19T03:54:49;100054.03;;;17.26;100.00
60099;BME280;62818;49.394;8.686;2023-09-19T03:55:50;100051.75;;;17.12;100.00
60099;BME280;62818;49.394;8.686;2023-09-19T03:56:50;100053.34;;;17.31;100.00
60099;BME280;62818;49.394;8.686;2023-09-19T03:57:50;100056.75;;;17.38;100.00
60099;BME280;62818;49.394;8.686;2023-09-19T03:58:52;100051.16;;;17.57;100.00
60099;BME280;62818;49.394;8.686;2023-09-19T03:59:53;100058.28;;;17.45;100.00
60099;BME280;62818;49.394;8.686;2023-09-19T04:00:57;100056.03;;;17.60;100.00
60099;BME280;62818;49.394;8.686;2023-09-19T04:01:58;100060.84;;;17.40;100.00
60099;BME280;62818;49.394;8.686;2023-09-19T04:02:59;100052.06;;;17.33;100.00
60099;BME280;62818;49.394;8.686;2023-09-19T04:04:02;100058.13;;;17.58;100.00
60099;BME280;62818;49.394;8.686;2023-09-19T04:05:08;100062.59;;;17.64;100.00
60099;BME280;62818;49.394;8.686;2023-09-19T04:06:10;100060.78;;;17.29;100.00
60099;BME280;62818;49.394;8.686;2023-09-19T04:07:11;100055.00;;;17.43;100.00
60099;BME280;62818;49.394;8.686;2023-09-19T04:08:15;100055.19;;;17.30;100.00
60099;BME280;62818;49.394;8.686;2023-09-19T04:09:15;100056.75;;;17.67;100.00
60099;BME280;62818;49.394;8.686;2023-09-19T04:10:16;100054.75;;;17.63;100.00
60099;BME280;62818;49.394;8.686;2023-09-19T04:11:17;100052.94;;;17.75;100.00
60099;BME280;62818;49.394;8.686;2023-09-19T04:12:18;100058.59;;;17.55;100.00
60099;BME280;62818;49.394;8.686;2023-09-19T04:13:18;100051.78;;;17.83;100.00
60099;BME280;62818;49.394;8.686;2023-09-19T04:14:19;100063.47;;;17.58;100.00
60099;BME280;62818;49.394;8.686;2023-09-19T04:15:20;100060.19;;;17.86;100.00
60099;BME280;62818;49.394;8.686;2023-09-19T04:16:22;100062.19;;;17.91;100.00
60099;BME280;62818;49.394;8.686;2023-09-19T04:17:23;100073.16;;;18.01;100.00
60099;BME280;62818;49.394;8.686;2023-09-19T04:18:24;100071.47;;;17.76;100.00
60099;BME280;62818;49.394;8.686;2023-09-19T04:19:25;100065.84;;;17.66;100.00
60099;BME280;62818;49.394;8.686;2023-09-19T04:20:25;100068.41;;;17.61;100.00
60099;BME280;62818;49.394;8.686;2023-09-19T04:21:26;100071.22;;;17.66;100.00
60099;BME280;62818;49.394;8.686;2023-09-19T04:22:28;100073.31;;;17.64;100.00
60099;BME280;62818;49.394;8.686;2023-09-19T04:23:28;100068.91;;;17.82;100.00
60099;BME280;62818;49.394;8.686;2023-09-19T04:24:29;100072.31;;;17.89;100.00
60099;BME280;62818;49.394;8.686;2023-09-19T04:25:30;100068.91;;;17.82;100.00
60099;BME280;62818;49.394;8.686;2023-09-19T04:26:30;100069.38;;;17.49;100.00
60099;BME280;62818;49.394;8.686;2023-09-19T04:27:31;100073.41;;;17.40;100.00
60099;BME280;62818;49.394;8.686;2023-09-19T04:28:32;100070.69;;;17.88;100.00
60099;BME280;62818;49.394;8.686;2023-09-19T04:29:34;100074.03;;;17.83;100.00
60099;BME280;62818;49.394;8.686;2023-09-19T04:30:35;100071.94;;;17.85;100.00
60099;BME280;62818;49.394;8.686;2023-09-19T04:31:35;100076.91;;;17.40;100.00
60099;BME280;62818;49.394;8.686;2023-09-19T04:32:40;100072.53;;;17.28;100.00
60099;BME280;62818;49.394;8.686;2023-09-19T04:33:41;100067.09;;;17.34;100.00
60099;BME280;62818;49.394;8.686;2023-09-19T04:34:43;100078.38;;;17.54;100.00
60099;BME280;62818;49.394;8.686;2023-09-19T04:35:44;100076.34;;;17.20;100.00
60099;BME280;62818;49.394;8.686;2023-09-19T04:36:44;100074.00;;;16.94;100.00
60099;BME280;62818;49.394;8.686;2023-09-19T04:37:45;100079.91;;;17.14;100.00
60099;BME280;62818;49.394;8.686;2023-09-19T04:38:45;100076.22;;;17.15;100.00
60099;BME280;62818;49.394;8.686;2023-09-19T04:39:46;100075.31;;;17.03;100.00
60099;BME280;62818;49.394;8.686;2023-09-19T04:40:47;100081.41;;;17.10;100.00
60099;BME280;62818;49.394;8.686;2023-09-19T04:41:48;100075.63;;;17.13;100.00
60099;BME280;62818;49.394;8.686;2023-09-19T04:42:54;100084.41;;;17.02;100.00
60099;BME280;62818;49.394;8.686;2023-09-19T04:44:00;100086.19;;;17.08;100.00
60099;BME280;62818;49.394;8.686;2023-09-19T04:45:00;100085.81;;;17.23;100.00
60099;BME280;62818;49.394;8.686;2023-09-19T04:46:01;100088.94;;;17.01;100.00
60099;BME280;62818;49.394;8.686;2023-09-19T04:47:01;100087.47;;;16.87;100.00
60099;BME280;62818;49.394;8.686;2023-09-19T04:48:02;100091.59;;;16.83;100.00
60099;BME280;62818;49.394;8.686;2023-09-19T04:49:03;100088.66;;;16.73;100.00
60099;BME280;62818;49.394;8.686;2023-09-19T04:50:04;100092.50;;;17.14;100.00
60099;BME280;62818;49.394;8.686;2023-09-19T04:51:11;100091.88;;;17.30;100.00
60099;BME280;62818;49.394;8.686;2023-09-19T04:52:12;100092.72;;;17.12;100.00
60099;BME280;62818;49.394;8.686;2023-09-19T04:53:15;100087.00;;;17.09;100.00
60099;BME280;62818;49.394;8.686;2023-09-19T04:54:17;100090.94;;;17.24;100.00
60099;BME280;62818;49.394;8.686;2023-09-19T04:55:18;100098.22;;;17.17;100.00
60099;BME280;62818;49.394;8.686;2023-09-19T04:56:19;100097.16;;;17.36;100.00
60099;BME280;62818;49.394;8.686;2023-09-19T04:57:21;100098.22;;;17.53;100.00
60099;BME280;62818;49.394;8.686;2023-09-19T04:58:22;100094.28;;;17.49;100.00
60099;BME280;62818;49.394;8.686;2023-09-19T04:59:22;100095.19;;;17.43;100.00
60099;BME280;62818;49.394;8.686;2023-09-19T05:00:23;100098.03;;;17.66;100.00
60099;BME280;62818;49.394;8.686;2023-09-19T05:01:25;100104.16;;;17.55;100.00
60099;BME280;62818;49.394;8.686;2023-09-19T05:02:28;100097.63;;;17.33;100.00
60099;BME280;62818;49.394;8.686;2023-09-19T05:03:30;100092.66;;;17.00;100.00
60099;BME280;62818;49.394;8.686;2023-09-19T05:04:31;100094.38;;;16.95;100.00
60099;BME280;62818;49.394;8.686;2023-09-19T05:05:32;100096.88;;;16.90;100.00
60099;BME280;62818;49.394;8.686;2023-09-19T05:06:34;100090.81;;;16.83;100.00
60099;BME280;62818;49.394;8.686;2023-09-19T05:07:35;100094.94;;;16.79;100.00
60099;BME280;62818;49.394;8.686;2023-09-19T05:08:36;100101.28;;;16.84;100.00
60099;BME280;62818;49.394;8.686;2023-09-19T05:09:37;100095.88;;;16.91;100.00
60099;BME280;62818;49.394;8.686;2023-09-19T05:10:37;100097.13;;;17.07;100.00
60099;BME280;62818;49.394;8.686;2023-09-19T05:11:38;100095.78;;;16.97;100.00
60099;BME280;62818;49.394;8.686;2023-09-19T05:12:39;100091.69;;;16.95;100.00
60099;BME280;62818;49.394;8.686;2023-09-19T05:13:40;100097.31;;;17.23;100.00
60099;BME280;62818;49.394;8.686;2023-09-19T05:14:40;100102.56;;;17.48;100.00
60099;BME280;62818;49.394;8.686;2023-09-19T05:15:41;100101.72;;;17.65;100.00
60099;BME280;62818;49.394;8.686;2023-09-19T05:16:41;100101.44;;;17.85;100.00
60099;BME280;62818;49.394;8.686;2023-09-19T05:17:50;100103.41;;;17.30;100.00
60099;BME280;62818;49.394;8.686;2023-09-19T05:18:54;100109.63;;;17.60;100.00
60099;BME280;62818;49.394;8.686;2023-09-19T05:19:55;100114.84;;;17.85;100.00
60099;BME280;62818;49.394;8.686;2023-09-19T05:20:55;100120.25;;;17.67;100.00
60099;BME280;62818;49.394;8.686;2023-09-19T05:21:56;100120.53;;;17.77;100.00
60099;BME280;62818;49.394;8.686;2023-09-19T05:23:04;100118.25;;;17.62;100.00
60099;BME280;62818;49.394;8.686;2023-09-19T05:24:07;100129.13;;;17.49;100.00
60099;BME280;62818;49.394;8.686;2023-09-19T05:25:11;100123.47;;;17.75;100.00
60099;BME280;62818;49.394;8.686;2023-09-19T05:26:16;100129.38;;;17.66;100.00
60099;BME280;62818;49.394;8.686;2023-09-19T05:27:17;100142.13;;;17.52;100.00
60099;BME280;62818;49.394;8.686;2023-09-19T05:28:17;100132.13;;;17.41;100.00
60099;BME280;62818;49.394;8.686;2023-09-19T05:29:18;100133.53;;;17.44;100.00
60099;BME280;62818;49.394;8.686;2023-09-19T05:30:18;100135.78;;;17.47;100.00
60099;BME280;62818;49.394;8.686;2023-09-19T05:31:20;100141.09;;;17.53;100.00
60099;BME280;62818;49.394;8.686;2023-09-19T05:32:20;100141.69;;;17.55;100.00
60099;BME280;62818;49.394;8.686;2023-09-19T05:33:23;100139.84;;;17.49;100.00
60099;BME280;62818;49.394;8.686;2023-09-19T05:34:24;100136.75;;;17.52;100.00
60099;BME280;62818;49.394;8.686;2023-09-19T05:35:28;100141.34;;;17.45;100.00
60099;BME280;62818;49.394;8.686;2023-09-19T05:36:28;100139.44;;;17.52;100.00
60099;BME280;62818;49.394;8.686;2023-09-19T05:37:30;100138.91;;;17.44;100.00
60099;BME280;62818;49.394;8.686;2023-09-19T05:38:30;100136.75;;;17.52;100.00
60099;BME280;62818;49.394;8.686;2023-09-19T05:39:31;100143.16;;;17.51;100.00
60099;BME280;62818;49.394;8.686;2023-09-19T05:40:32;100141.44;;;17.57;100.00